Time;durP1;ratioP1;P1;durP2;ratioP2;P2;SDS_P1;SDS_P2;PMS_P1;PMS_P2;Temp;Humidity;BMP_temperature;BMP_pressure;BME280_temperature;BME280_humidity;BME280_pressure;Samples;Min_cycle;Max_cycle;Signal;HPM_P1;HPM_P2
2021/05/14 00:00:11;;;;;;;;;;;6.10;96.50;;;;;;5063129;28;19920;-69
2021/05/14 00:02:39;;;;;;;;;;;6.10;96.60;;;;;;5060838;28;19924;-68
2021/05/14 00:05:05;;;;;;;;;;;6.10;96.90;;;;;;5062205;28;19959;-68
2021/05/14 00:07:30;;;;;;;;;;;6.00;96.60;;;;;;5057108;28;19921;-69
2021/05/14 00:09:56;;;;;;;;;;;5.90;96.70;;;;;;5060963;28;20561;-68
2021/05/14 00:12:22;;;;;;;;;;;5.80;96.60;;;;;;5059799;28;19973;-70
2021/05/14 00:14:47;;;;;;;;;;;5.60;96.60;;;;;;5062002;28;19947;-70
2021/05/14 00:17:13;;;;;;;;;;;5.50;96.60;;;;;;5059394;28;20011;-70
2021/05/14 00:19:38;;;;;;;;;;;5.60;96.70;;;;;;5062265;28;19928;-69
2021/05/14 00:22:04;;;;;;;;;;;5.50;96.90;;;;;;5060461;28;21711;-70
2021/05/14 00:24:29;;;;;;;;;;;5.50;96.80;;;;;;5057851;28;19913;-69
2021/05/14 00:26:58;;;;;;;;;;;5.50;96.90;;;;;;5058917;28;19917;-70
2021/05/14 00:29:24;;;;;;;;;;;5.50;96.80;;;;;;5073657;28;19913;-70
2021/05/14 00:31:49;;;;;;;;;;;5.60;97.10;;;;;;5043296;28;19931;-69
2021/05/14 00:34:15;;;;;;;;;;;5.70;97.20;;;;;;5060156;28;19924;-69
2021/05/14 00:36:41;;;;;;;;;;;5.80;97.20;;;;;;5068358;28;19913;-70
2021/05/14 00:39:06;;;;;;;;;;;5.60;96.90;;;;;;5065225;28;19923;-70
2021/05/14 00:41:32;;;;;;;;;;;5.60;96.90;;;;;;5058423;28;20303;-69
2021/05/14 00:43:57;;;;;;;;;;;5.60;96.90;;;;;;5060042;28;20088;-69
2021/05/14 00:46:24;;;;;;;;;;;5.60;97.10;;;;;;5061323;28;19916;-69
2021/05/14 00:48:52;;;;;;;;;;;5.60;96.80;;;;;;5062962;28;19913;-70
2021/05/14 00:51:18;;;;;;;;;;;5.40;97.00;;;;;;5065135;28;20190;-70
2021/05/14 00:53:43;;;;;;;;;;;5.40;96.90;;;;;;5064812;28;20007;-69
2021/05/14 00:56:09;;;;;;;;;;;5.30;97.00;;;;;;5060950;28;20214;-70
2021/05/14 00:58:35;;;;;;;;;;;5.20;96.90;;;;;;5058431;28;19927;-70
2021/05/14 01:01:00;;;;;;;;;;;5.30;97.10;;;;;;5065296;28;20332;-70
2021/05/14 01:03:26;;;;;;;;;;;5.30;97.10;;;;;;5064990;28;19916;-70
2021/05/14 01:05:54;;;;;;;;;;;5.40;97.20;;;;;;5066933;28;20348;-69
2021/05/14 01:08:19;;;;;;;;;;;5.50;97.20;;;;;;5061620;28;20146;-70
2021/05/14 01:10:45;;;;;;;;;;;5.40;97.00;;;;;;5059741;28;20298;-69
2021/05/14 01:13:11;;;;;;;;;;;5.30;96.90;;;;;;5059768;28;19928;-70
2021/05/14 01:15:36;;;;;;;;;;;5.30;97.00;;;;;;5064079;28;19929;-69
2021/05/14 01:18:02;;;;;;;;;;;5.20;96.90;;;;;;5057994;28;20007;-69
2021/05/14 01:20:28;;;;;;;;;;;5.00;97.20;;;;;;5064006;28;20308;-70
2021/05/14 01:22:54;;;;;;;;;;;4.90;97.10;;;;;;5054694;28;20501;-70
2021/05/14 01:25:19;;;;;;;;;;;4.80;97.10;;;;;;5078854;28;19919;-70
2021/05/14 01:27:45;;;;;;;;;;;4.70;97.10;;;;;;5076650;28;19916;-70
2021/05/14 01:30:11;;;;;;;;;;;4.60;97.20;;;;;;5077109;28;19920;-68
2021/05/14 01:32:36;;;;;;;;;;;4.50;97.20;;;;;;5090014;28;19921;-69
2021/05/14 01:35:02;;;;;;;;;;;4.60;96.90;;;;;;5070077;28;19927;-70
2021/05/14 01:37:28;;;;;;;;;;;4.80;97.00;;;;;;5057656;28;19912;-70
2021/05/14 01:39:53;;;;;;;;;;;4.90;97.30;;;;;;5059755;28;20285;-69
2021/05/14 01:42:19;;;;;;;;;;;4.80;97.10;;;;;;5060924;28;20334;-69
2021/05/14 01:44:44;;;;;;;;;;;5.00;97.50;;;;;;5063242;28;19921;-70
2021/05/14 01:47:15;;;;;;;;;;;5.10;97.50;;;;;;5060307;28;19932;-69
2021/05/14 01:49:40;;;;;;;;;;;5.00;97.50;;;;;;5065092;28;20279;-69
2021/05/14 01:52:06;;;;;;;;;;;5.00;97.30;;;;;;5060361;28;19916;-70
2021/05/14 01:54:32;;;;;;;;;;;5.20;97.50;;;;;;5060437;28;19912;-70
2021/05/14 01:56:57;;;;;;;;;;;5.10;97.40;;;;;;5062931;28;19973;-70
2021/05/14 01:59:23;;;;;;;;;;;5.10;97.40;;;;;;5063015;28;20198;-70
2021/05/14 02:01:48;;;;;;;;;;;4.80;97.20;;;;;;5068719;28;19913;-70
2021/05/14 02:04:14;;;;;;;;;;;4.70;97.40;;;;;;5058463;28;20435;-69
2021/05/14 02:06:39;;;;;;;;;;;4.50;97.20;;;;;;5061751;28;20309;-70
2021/05/14 02:09:05;;;;;;;;;;;4.50;97.30;;;;;;5061813;28;19920;-70
2021/05/14 02:11:34;;;;;;;;;;;4.50;97.20;;;;;;5059859;28;19920;-70
2021/05/14 02:13:59;;;;;;;;;;;4.40;97.00;;;;;;5066184;28;19928;-70
2021/05/14 02:16:25;;;;;;;;;;;4.50;97.50;;;;;;5047322;28;19920;-69
2021/05/14 02:18:51;;;;;;;;;;;4.40;97.10;;;;;;5058706;28;19920;-69
2021/05/14 02:21:16;;;;;;;;;;;4.30;97.30;;;;;;5058669;28;19969;-69
2021/05/14 02:23:42;;;;;;;;;;;4.20;97.10;;;;;;5057202;28;20237;-70
2021/05/14 02:26:07;;;;;;;;;;;4.20;97.20;;;;;;5058067;28;19913;-69
2021/05/14 02:28:33;;;;;;;;;;;4.20;97.20;;;;;;5059231;28;19950;-70
2021/05/14 02:30:59;;;;;;;;;;;4.20;96.80;;;;;;5061167;28;19918;-70
2021/05/14 02:33:25;;;;;;;;;;;4.30;97.20;;;;;;5062598;28;20225;-70
2021/05/14 02:35:50;;;;;;;;;;;4.40;97.10;;;;;;5073910;28;19921;-70
2021/05/14 02:38:16;;;;;;;;;;;4.40;97.40;;;;;;5038812;28;20138;-70
2021/05/14 02:40:41;;;;;;;;;;;4.20;97.10;;;;;;5060275;28;19916;-70
2021/05/14 02:43:07;;;;;;;;;;;4.30;97.20;;;;;;5058957;28;19921;-70
2021/05/14 02:45:32;;;;;;;;;;;4.30;97.10;;;;;;5059182;28;20309;-69
2021/05/14 02:47:58;;;;;;;;;;;4.10;97.20;;;;;;5057203;28;19986;-70
2021/05/14 02:50:24;;;;;;;;;;;4.20;97.00;;;;;;5065066;28;19924;-70
2021/05/14 02:52:50;;;;;;;;;;;4.30;97.30;;;;;;5064490;28;20305;-69
2021/05/14 02:55:15;;;;;;;;;;;4.20;97.20;;;;;;5063894;28;19927;-69
2021/05/14 02:57:43;;;;;;;;;;;4.10;97.20;;;;;;5057785;28;19921;-69
2021/05/14 03:00:10;;;;;;;;;;;4.20;97.00;;;;;;5064467;28;19920;-68
2021/05/14 03:02:35;;;;;;;;;;;4.30;97.20;;;;;;5037914;28;19975;-68
2021/05/14 03:05:04;;;;;;;;;;;4.20;97.20;;;;;;5060870;28;19998;-69
2021/05/14 03:07:29;;;;;;;;;;;4.20;97.30;;;;;;5062145;28;19928;-70
2021/05/14 03:09:55;;;;;;;;;;;4.20;97.20;;;;;;5062863;28;19921;-71
2021/05/14 03:12:20;;;;;;;;;;;4.20;96.90;;;;;;5040159;28;19928;-71
2021/05/14 03:14:46;;;;;;;;;;;4.20;97.10;;;;;;5058340;28;20004;-70
2021/05/14 03:17:11;;;;;;;;;;;4.10;97.30;;;;;;5060025;28;19912;-70
2021/05/14 03:19:37;;;;;;;;;;;4.00;97.00;;;;;;5061660;28;19920;-70
2021/05/14 03:22:02;;;;;;;;;;;4.00;97.20;;;;;;5058392;28;19920;-70
2021/05/14 03:24:28;;;;;;;;;;;4.00;96.70;;;;;;5061179;28;19916;-69
2021/05/14 03:26:56;;;;;;;;;;;4.00;96.90;;;;;;5061273;28;19981;-69
2021/05/14 03:29:21;;;;;;;;;;;4.00;96.90;;;;;;5058458;28;20003;-70
2021/05/14 03:31:47;;;;;;;;;;;4.00;96.90;;;;;;5057843;28;20090;-70
2021/05/14 03:34:13;;;;;;;;;;;3.90;97.00;;;;;;5060399;28;19917;-70
2021/05/14 03:36:38;;;;;;;;;;;3.90;97.00;;;;;;5065164;28;19919;-70
2021/05/14 03:39:08;;;;;;;;;;;3.80;96.70;;;;;;5064406;28;19968;-69
2021/05/14 03:41:44;;;;;;;;;;;3.90;96.90;;;;;;5058362;28;19912;-70
2021/05/14 03:44:10;;;;;;;;;;;4.00;96.90;;;;;;5057763;28;20217;-70
2021/05/14 03:46:38;;;;;;;;;;;3.80;97.00;;;;;;5059765;28;19939;-70
2021/05/14 03:49:04;;;;;;;;;;;3.80;96.70;;;;;;5067958;28;19928;-69
2021/05/14 03:51:30;;;;;;;;;;;3.80;96.80;;;;;;5062064;28;19916;-70
2021/05/14 03:53:56;;;;;;;;;;;3.80;96.50;;;;;;5071971;28;19920;-70
2021/05/14 03:56:22;;;;;;;;;;;3.90;96.70;;;;;;5074825;28;19919;-69
2021/05/14 03:58:47;;;;;;;;;;;3.90;96.80;;;;;;5057456;28;19913;-70
2021/05/14 04:01:13;;;;;;;;;;;4.00;96.60;;;;;;5067472;28;20268;-71
2021/05/14 04:03:38;;;;;;;;;;;4.10;96.70;;;;;;5051564;28;19920;-70
2021/05/14 04:06:04;;;;;;;;;;;4.20;96.80;;;;;;5051744;28;20430;-70
2021/05/14 04:08:29;;;;;;;;;;;4.20;96.90;;;;;;5070720;28;20335;-69
2021/05/14 04:16:23;;;;;;;;;;;4.40;96.80;;;;;;5072793;28;19936;-71
2021/05/14 04:18:50;;;;;;;;;;;4.40;97.10;;;;;;5071327;28;20454;-70
2021/05/14 04:21:16;;;;;;;;;;;4.30;96.80;;;;;;5074163;28;19912;-69
2021/05/14 04:23:41;;;;;;;;;;;4.40;97.20;;;;;;5073708;28;19920;-69
2021/05/14 04:26:07;;;;;;;;;;;4.40;96.90;;;;;;5072960;28;19924;-70
2021/05/14 04:28:32;;;;;;;;;;;4.50;96.50;;;;;;5074646;28;19924;-70
2021/05/14 04:30:58;;;;;;;;;;;4.50;97.10;;;;;;5076134;28;19912;-69
2021/05/14 04:33:24;;;;;;;;;;;4.50;97.10;;;;;;5072320;28;19920;-69
2021/05/14 04:35:49;;;;;;;;;;;4.50;97.00;;;;;;5074504;28;19947;-71
2021/05/14 04:38:15;;;;;;;;;;;4.40;97.10;;;;;;5075622;28;20356;-73
2021/05/14 04:40:41;;;;;;;;;;;4.40;97.10;;;;;;5085866;28;20304;-70
2021/05/14 04:43:06;;;;;;;;;;;4.50;97.00;;;;;;5070833;28;19948;-70
2021/05/14 04:45:32;;;;;;;;;;;4.50;96.90;;;;;;5074814;28;20205;-70
2021/05/14 04:47:57;;;;;;;;;;;4.60;97.10;;;;;;5073844;28;20465;-71
2021/05/14 04:50:23;;;;;;;;;;;4.50;97.30;;;;;;5072032;28;19912;-69
2021/05/14 04:52:55;;;;;;;;;;;4.60;97.10;;;;;;5072974;28;19912;-70
2021/05/14 04:55:21;;;;;;;;;;;4.70;97.20;;;;;;5072414;28;19951;-70
2021/05/14 04:57:47;;;;;;;;;;;4.80;96.80;;;;;;5055112;28;20352;-69
2021/05/14 05:00:12;;;;;;;;;;;4.90;97.40;;;;;;5074222;28;20264;-69
2021/05/14 05:02:38;;;;;;;;;;;4.80;97.50;;;;;;5072396;28;19919;-69
2021/05/14 05:05:04;;;;;;;;;;;4.80;97.10;;;;;;5072791;28;20007;-71
2021/05/14 05:07:31;;;;;;;;;;;5.00;97.20;;;;;;5072812;28;19924;-70
2021/05/14 05:09:56;;;;;;;;;;;5.10;97.30;;;;;;5072203;28;19913;-70
2021/05/14 05:12:22;;;;;;;;;;;5.30;97.30;;;;;;5072557;28;19920;-72
2021/05/14 05:14:47;;;;;;;;;;;5.70;97.70;;;;;;5073453;28;19978;-71
2021/05/14 05:17:13;;;;;;;;;;;5.90;97.80;;;;;;5058203;28;19909;-70
2021/05/14 05:19:39;;;;;;;;;;;6.10;98.00;;;;;;5063559;28;20203;-70
2021/05/14 05:22:04;;;;;;;;;;;6.10;97.70;;;;;;5061506;28;19923;-70
2021/05/14 05:24:30;;;;;;;;;;;6.20;97.60;;;;;;5066787;28;19969;-70
2021/05/14 05:26:55;;;;;;;;;;;6.40;97.90;;;;;;5078165;28;20186;-69
2021/05/14 05:29:21;;;;;;;;;;;6.60;98.00;;;;;;5074447;28;19912;-69
2021/05/14 05:31:47;;;;;;;;;;;6.60;97.70;;;;;;5077535;28;19919;-66
2021/05/14 05:34:13;;;;;;;;;;;6.60;97.60;;;;;;5075878;28;19916;-67
2021/05/14 05:36:38;;;;;;;;;;;6.70;97.50;;;;;;5077402;28;19919;-67
2021/05/14 05:39:05;;;;;;;;;;;6.90;97.80;;;;;;5077249;28;19909;-69
2021/05/14 05:41:30;;;;;;;;;;;7.10;98.00;;;;;;5057500;28;19913;-69
2021/05/14 05:43:56;;;;;;;;;;;7.40;97.80;;;;;;5077848;28;19915;-69
2021/05/14 05:46:22;;;;;;;;;;;7.60;98.00;;;;;;5077204;28;20007;-70
2021/05/14 05:48:49;;;;;;;;;;;7.80;97.60;;;;;;5076273;28;19958;-69
2021/05/14 05:51:15;;;;;;;;;;;8.00;97.20;;;;;;5076486;28;19913;-68
2021/05/14 05:53:41;;;;;;;;;;;8.20;96.40;;;;;;5058516;28;20264;-69
2021/05/14 05:56:06;;;;;;;;;;;8.30;95.80;;;;;;5057888;28;20198;-69
2021/05/14 05:58:32;;;;;;;;;;;8.40;95.20;;;;;;5066137;28;20011;-69
2021/05/14 06:00:58;;;;;;;;;;;8.50;95.40;;;;;;5066600;28;19917;-68
2021/05/14 06:03:24;;;;;;;;;;;8.50;95.20;;;;;;5049878;28;19916;-69
2021/05/14 06:05:50;;;;;;;;;;;8.70;94.40;;;;;;5074859;28;19964;-69
2021/05/14 06:08:15;;;;;;;;;;;8.70;93.80;;;;;;5073750;28;20213;-69
2021/05/14 06:10:42;;;;;;;;;;;8.80;94.00;;;;;;5076574;28;19916;-70
2021/05/14 06:13:08;;;;;;;;;;;8.90;93.80;;;;;;5076872;28;19916;-69
2021/05/14 06:15:33;;;;;;;;;;;9.00;93.70;;;;;;5090547;28;19920;-70
2021/05/14 06:17:59;;;;;;;;;;;9.00;93.50;;;;;;5090792;28;20001;-71
2021/05/14 06:20:26;;;;;;;;;;;9.10;93.60;;;;;;5096870;28;19963;-70
2021/05/14 06:22:52;;;;;;;;;;;9.20;93.30;;;;;;5090459;28;20209;-70
2021/05/14 06:25:18;;;;;;;;;;;9.30;93.50;;;;;;5063125;28;19923;-69
2021/05/14 06:27:44;;;;;;;;;;;9.40;93.20;;;;;;5081897;28;19925;-69
2021/05/14 06:30:10;;;;;;;;;;;9.40;93.10;;;;;;5074272;28;19915;-68
2021/05/14 06:32:36;;;;;;;;;;;9.40;93.40;;;;;;5078342;28;19959;-67
2021/05/14 06:35:02;;;;;;;;;;;9.60;92.70;;;;;;5078900;28;19915;-69
2021/05/14 06:37:30;;;;;;;;;;;9.60;92.70;;;;;;5072624;28;19967;-68
2021/05/14 06:39:56;;;;;;;;;;;9.50;92.90;;;;;;5077025;28;19958;-70
2021/05/14 06:42:22;;;;;;;;;;;9.60;93.40;;;;;;5075166;28;20405;-69
2021/05/14 06:44:48;;;;;;;;;;;9.70;92.60;;;;;;5075129;28;20378;-69
2021/05/14 06:47:13;;;;;;;;;;;9.80;92.60;;;;;;5071384;28;20012;-69
2021/05/14 06:49:39;;;;;;;;;;;9.80;93.20;;;;;;5074842;28;19912;-69
2021/05/14 06:52:04;;;;;;;;;;;9.90;92.80;;;;;;5075557;28;19913;-70
2021/05/14 06:54:30;;;;;;;;;;;10.00;92.20;;;;;;5077033;28;20290;-70
2021/05/14 06:56:56;;;;;;;;;;;10.10;92.10;;;;;;5074564;28;20301;-69
2021/05/14 06:59:21;;;;;;;;;;;10.30;92.30;;;;;;5068609;28;19912;-70
2021/05/14 07:01:47;;;;;;;;;;;10.40;92.10;;;;;;5075856;28;20376;-69
2021/05/14 07:04:13;;;;;;;;;;;10.50;91.30;;;;;;5067478;28;19966;-70
2021/05/14 07:06:38;;;;;;;;;;;10.40;91.00;;;;;;5078718;28;19920;-69
2021/05/14 07:09:04;;;;;;;;;;;10.30;92.30;;;;;;5066746;28;19940;-70
2021/05/14 07:11:29;;;;;;;;;;;10.50;91.50;;;;;;5055736;28;20209;-69
2021/05/14 07:13:55;;;;;;;;;;;10.60;91.40;;;;;;5070668;28;19918;-70
2021/05/14 07:16:20;;;;;;;;;;;10.50;91.20;;;;;;5069551;28;19959;-70
2021/05/14 07:18:46;;;;;;;;;;;10.40;91.60;;;;;;5065977;28;19920;-70
2021/05/14 07:21:11;;;;;;;;;;;10.50;92.00;;;;;;5070481;28;20140;-69
2021/05/14 07:23:37;;;;;;;;;;;10.70;91.20;;;;;;5074152;28;19920;-70
2021/05/14 07:26:02;;;;;;;;;;;10.80;90.50;;;;;;5058913;28;19916;-70
2021/05/14 07:28:28;;;;;;;;;;;10.90;90.70;;;;;;5074677;28;19942;-70
2021/05/14 07:30:54;;;;;;;;;;;11.10;89.60;;;;;;5073424;28;19912;-70
2021/05/14 07:33:19;;;;;;;;;;;11.20;90.10;;;;;;5072399;28;19920;-70
2021/05/14 07:35:45;;;;;;;;;;;11.80;89.30;;;;;;5074351;28;19913;-71
2021/05/14 07:38:10;;;;;;;;;;;12.00;87.00;;;;;;5074423;28;19921;-70
2021/05/14 07:40:36;;;;;;;;;;;12.70;86.50;;;;;;5075101;28;19943;-70
2021/05/14 07:43:02;;;;;;;;;;;13.50;82.30;;;;;;5073862;28;19935;-70
2021/05/14 07:45:27;;;;;;;;;;;14.20;80.10;;;;;;5074842;28;20283;-70
2021/05/14 07:47:53;;;;;;;;;;;14.50;77.90;;;;;;5072981;28;20271;-70
2021/05/14 07:50:18;;;;;;;;;;;14.80;77.10;;;;;;5074387;28;19920;-70
2021/05/14 07:52:45;;;;;;;;;;;15.70;76.00;;;;;;5075053;28;20240;-70
2021/05/14 07:55:11;;;;;;;;;;;16.00;74.20;;;;;;5074065;28;19967;-70
2021/05/14 07:57:36;;;;;;;;;;;17.00;72.80;;;;;;5074404;28;19916;-71
2021/05/14 08:00:03;;;;;;;;;;;18.40;67.90;;;;;;5074263;28;19926;-70
2021/05/14 08:02:28;;;;;;;;;;;18.00;68.70;;;;;;5073252;28;19935;-70
2021/05/14 08:04:54;;;;;;;;;;;18.70;68.10;;;;;;5074187;28;20225;-70
2021/05/14 08:07:19;;;;;;;;;;;18.80;66.20;;;;;;5074119;28;20461;-70
2021/05/14 08:09:45;;;;;;;;;;;17.00;68.20;;;;;;5074140;28;20224;-70
2021/05/14 08:12:11;;;;;;;;;;;17.10;70.30;;;;;;5071248;28;19920;-69
2021/05/14 08:14:38;;;;;;;;;;;17.10;68.70;;;;;;5075184;28;19917;-69
2021/05/14 08:17:04;;;;;;;;;;;17.40;68.70;;;;;;5069474;28;19927;-69
2021/05/14 08:19:30;;;;;;;;;;;17.90;66.80;;;;;;5073132;28;19934;-68
2021/05/14 08:21:55;;;;;;;;;;;18.60;64.40;;;;;;5072564;28;19977;-69
2021/05/14 08:24:21;;;;;;;;;;;19.00;64.30;;;;;;5072118;28;19920;-68
2021/05/14 08:26:48;;;;;;;;;;;17.70;65.00;;;;;;5073309;28;19916;-70
2021/05/14 08:29:13;;;;;;;;;;;17.40;65.70;;;;;;5073469;28;19934;-70
2021/05/14 08:31:41;;;;;;;;;;;17.90;65.60;;;;;;5073218;28;20003;-69
2021/05/14 08:34:09;;;;;;;;;;;17.10;65.80;;;;;;5052779;28;19919;-68
2021/05/14 08:36:35;;;;;;;;;;;17.00;66.80;;;;;;5072256;28;20007;-69
2021/05/14 08:39:00;;;;;;;;;;;17.40;68.70;;;;;;5073542;28;20313;-69
2021/05/14 08:41:26;;;;;;;;;;;18.40;66.50;;;;;;5056190;28;19920;-70
2021/05/14 08:43:52;;;;;;;;;;;19.00;65.70;;;;;;5073456;28;19967;-69
2021/05/14 08:46:18;;;;;;;;;;;18.40;66.00;;;;;;5073148;28;19908;-69
2021/05/14 08:48:44;;;;;;;;;;;16.70;68.40;;;;;;5073356;28;20361;-68
2021/05/14 08:51:11;;;;;;;;;;;15.30;71.50;;;;;;5074736;28;19917;-68
2021/05/14 08:53:43;;;;;;;;;;;14.50;74.10;;;;;;5074831;28;20209;-69
2021/05/14 08:56:09;;;;;;;;;;;14.60;76.00;;;;;;5057859;28;20301;-69
2021/05/14 08:58:37;;;;;;;;;;;16.70;71.90;;;;;;5076783;28;19924;-68
2021/05/14 09:01:03;;;;;;;;;;;18.10;66.10;;;;;;5076866;28;19917;-68
2021/05/14 09:03:29;;;;;;;;;;;18.30;65.00;;;;;;5075429;28;20309;-68
2021/05/14 09:05:55;;;;;;;;;;;18.00;65.70;;;;;;5076605;28;19995;-66
2021/05/14 09:08:30;;;;;;;;;;;17.30;66.20;;;;;;5075958;28;20256;-68
2021/05/14 09:10:56;;;;;;;;;;;17.00;67.00;;;;;;5076484;28;19916;-68
2021/05/14 09:13:22;;;;;;;;;;;17.90;66.40;;;;;;5076556;28;19920;-68
2021/05/14 09:15:48;;;;;;;;;;;18.70;63.70;;;;;;5093546;28;20259;-68
2021/05/14 09:18:17;;;;;;;;;;;18.10;63.80;;;;;;5075898;28;19935;-69
2021/05/14 09:20:45;;;;;;;;;;;16.90;66.60;;;;;;5077831;28;19951;-68
2021/05/14 09:23:17;;;;;;;;;;;15.50;68.70;;;;;;5077688;28;20255;-68
2021/05/14 09:25:52;;;;;;;;;;;14.70;71.50;;;;;;5058544;28;19923;-68
2021/05/14 09:28:29;;;;;;;;;;;14.30;73.60;;;;;;5059193;28;19924;-68
2021/05/14 09:31:06;;;;;;;;;;;14.40;74.40;;;;;;5077167;28;19935;-68
2021/05/14 09:33:33;;;;;;;;;;;14.60;74.50;;;;;;5076426;28;19958;-68
2021/05/14 09:35:59;;;;;;;;;;;14.50;73.00;;;;;;5058032;28;19912;-68
2021/05/14 09:38:26;;;;;;;;;;;14.20;74.00;;;;;;5057558;28;19920;-68
2021/05/14 09:40:51;;;;;;;;;;;14.20;72.50;;;;;;5076631;28;19912;-68
2021/05/14 09:43:17;;;;;;;;;;;14.20;72.30;;;;;;5076653;28;20254;-68
2021/05/14 09:45:43;;;;;;;;;;;14.70;72.80;;;;;;5076361;28;19954;-68
2021/05/14 09:48:16;;;;;;;;;;;16.10;69.90;;;;;;5075355;28;19912;-68
2021/05/14 09:50:43;;;;;;;;;;;17.20;68.40;;;;;;5076340;28;19926;-68
2021/05/14 09:53:11;;;;;;;;;;;16.80;67.90;;;;;;5083453;28;20271;-69
2021/05/14 09:55:39;;;;;;;;;;;16.10;68.30;;;;;;5078347;28;19913;-67
2021/05/14 09:58:09;;;;;;;;;;;15.50;69.80;;;;;;5076323;28;19916;-68
2021/05/14 10:00:34;;;;;;;;;;;15.40;70.90;;;;;;5073384;28;20035;-68
2021/05/14 10:03:00;;;;;;;;;;;14.90;71.40;;;;;;5075191;28;20033;-68
2021/05/14 10:05:26;;;;;;;;;;;14.90;72.20;;;;;;5077626;28;20384;-68
2021/05/14 10:07:52;;;;;;;;;;;14.80;72.00;;;;;;5081492;28;19920;-68
2021/05/14 10:10:18;;;;;;;;;;;14.50;72.30;;;;;;5077825;28;19913;-68
2021/05/14 10:12:47;;;;;;;;;;;14.60;72.30;;;;;;5065623;28;20544;-68
2021/05/14 10:15:12;;;;;;;;;;;14.50;71.20;;;;;;5075199;28;19929;-68
2021/05/14 10:17:42;;;;;;;;;;;14.60;71.10;;;;;;5074010;28;20225;-68
2021/05/14 10:20:14;;;;;;;;;;;14.40;71.90;;;;;;5074735;28;19913;-68
2021/05/14 10:22:41;;;;;;;;;;;14.40;71.70;;;;;;5074282;28;19915;-68
2021/05/14 10:25:07;;;;;;;;;;;14.60;71.30;;;;;;5072741;28;19939;-68
2021/05/14 10:27:39;;;;;;;;;;;14.70;69.40;;;;;;5075293;28;19923;-68
2021/05/14 10:30:05;;;;;;;;;;;14.50;70.10;;;;;;5073513;28;19920;-68
2021/05/14 10:32:40;;;;;;;;;;;14.80;68.50;;;;;;5070344;28;19916;-69
2021/05/14 10:35:06;;;;;;;;;;;15.70;68.00;;;;;;5061922;28;19916;-68
2021/05/14 10:37:51;;;;;;;;;;;17.10;65.50;;;;;;5063546;28;19948;-70
2021/05/14 10:40:37;;;;;;;;;;;18.00;63.70;;;;;;5065493;28;20321;-69
2021/05/14 10:43:03;;;;;;;;;;;19.30;58.80;;;;;;5074481;28;19982;-69
2021/05/14 10:45:32;;;;;;;;;;;18.60;59.10;;;;;;5075541;28;19969;-69
2021/05/14 10:47:58;;;;;;;;;;;18.20;62.80;;;;;;5073025;28;19916;-69
2021/05/14 10:50:32;;;;;;;;;;;17.80;62.50;;;;;;5075169;28;19958;-69
2021/05/14 10:53:16;;;;;;;;;;;18.00;62.50;;;;;;5075797;28;20423;-69
2021/05/14 10:55:41;;;;;;;;;;;19.20;61.90;;;;;;5075574;28;19913;-69
2021/05/14 10:58:07;;;;;;;;;;;19.50;60.30;;;;;;5075000;28;20217;-69
2021/05/14 11:00:37;;;;;;;;;;;18.90;61.70;;;;;;5075459;28;20313;-69
2021/05/14 11:03:16;;;;;;;;;;;18.50;61.20;;;;;;5074350;28;19928;-69
2021/05/14 11:05:42;;;;;;;;;;;17.80;61.70;;;;;;5068004;28;19913;-69
2021/05/14 11:08:30;;;;;;;;;;;18.10;61.80;;;;;;5075168;28;19999;-69
2021/05/14 11:11:00;;;;;;;;;;;19.50;61.80;;;;;;5075336;28;19972;-70
2021/05/14 11:13:46;;;;;;;;;;;20.00;60.30;;;;;;5075493;28;19920;-69
2021/05/14 11:16:29;;;;;;;;;;;19.10;59.60;;;;;;5094342;28;20378;-69
2021/05/14 11:18:57;;;;;;;;;;;18.00;63.10;;;;;;5089974;28;20430;-69
2021/05/14 11:21:43;;;;;;;;;;;18.10;63.00;;;;;;5092156;28;19919;-69
2021/05/14 11:24:08;;;;;;;;;;;17.70;61.40;;;;;;5074387;28;19916;-69
2021/05/14 11:26:34;;;;;;;;;;;17.30;61.40;;;;;;5093183;28;19919;-69
2021/05/14 11:29:00;;;;;;;;;;;16.80;62.90;;;;;;5092669;28;20013;-69
2021/05/14 11:31:26;;;;;;;;;;;17.40;62.00;;;;;;5092078;28;19916;-69
2021/05/14 11:33:52;;;;;;;;;;;18.60;60.30;;;;;;5091789;28;19916;-69
2021/05/14 11:36:18;;;;;;;;;;;19.00;57.70;;;;;;5092882;28;20616;-69
2021/05/14 11:38:45;;;;;;;;;;;18.80;58.70;;;;;;5092482;28;20010;-69
2021/05/14 11:41:17;;;;;;;;;;;19.30;58.00;;;;;;5090150;28;19951;-69
2021/05/14 11:43:55;;;;;;;;;;;19.30;58.10;;;;;;5091346;28;19920;-69
2021/05/14 11:46:23;;;;;;;;;;;19.20;58.70;;;;;;5092045;28;19943;-69
2021/05/14 11:48:48;;;;;;;;;;;18.80;57.40;;;;;;5089595;28;19942;-69
2021/05/14 11:51:14;;;;;;;;;;;18.60;57.10;;;;;;5073756;28;19916;-68
2021/05/14 11:53:40;;;;;;;;;;;19.10;57.40;;;;;;5073781;28;19912;-71
2021/05/14 11:56:05;;;;;;;;;;;18.70;60.60;;;;;;5093673;28;20453;-68
2021/05/14 11:58:31;;;;;;;;;;;18.00;62.60;;;;;;5090393;28;19916;-70
2021/05/14 12:00:57;;;;;;;;;;;17.40;63.30;;;;;;5093628;28;19920;-71
2021/05/14 12:03:24;;;;;;;;;;;17.80;62.60;;;;;;5092738;28;20301;-70
2021/05/14 12:05:50;;;;;;;;;;;17.60;64.00;;;;;;5093972;28;19919;-69
2021/05/14 12:08:20;;;;;;;;;;;17.70;62.70;;;;;;5094425;28;19916;-70
2021/05/14 12:11:04;;;;;;;;;;;18.00;62.60;;;;;;5095124;28;19919;-69
2021/05/14 12:13:32;;;;;;;;;;;17.80;62.60;;;;;;5095285;28;19912;-70
2021/05/14 12:16:04;;;;;;;;;;;17.20;63.20;;;;;;5095348;28;20417;-70
2021/05/14 12:18:32;;;;;;;;;;;17.50;63.70;;;;;;5067508;28;19916;-70
2021/05/14 12:20:59;;;;;;;;;;;18.20;62.00;;;;;;5074319;28;19909;-70
2021/05/14 12:23:26;;;;;;;;;;;17.90;60.80;;;;;;5073108;28;20007;-69
2021/05/14 12:25:53;;;;;;;;;;;18.10;61.70;;;;;;5073704;28;19908;-68
2021/05/14 12:28:28;;;;;;;;;;;18.40;60.70;;;;;;5076058;28;20269;-68
2021/05/14 12:30:54;;;;;;;;;;;18.20;61.00;;;;;;5077147;28;19912;-69
2021/05/14 12:33:20;;;;;;;;;;;18.40;60.00;;;;;;5076324;28;19918;-68
2021/05/14 12:35:58;;;;;;;;;;;18.20;60.40;;;;;;5077190;28;20493;-68
2021/05/14 12:38:56;;;;;;;;;;;18.40;60.90;;;;;;5081140;28;19916;-68
2021/05/14 12:41:32;;;;;;;;;;;18.30;60.40;;;;;;5032298;28;19915;-69
2021/05/14 12:44:13;;;;;;;;;;;18.50;60.60;;;;;;5077949;28;20398;-68
2021/05/14 12:47:00;;;;;;;;;;;18.70;59.20;;;;;;5079179;28;20066;-68
2021/05/14 12:49:29;;;;;;;;;;;18.80;58.60;;;;;;5075836;28;19912;-68
2021/05/14 12:52:05;;;;;;;;;;;19.10;57.20;;;;;;5080942;28;19923;-69
2021/05/14 12:54:32;;;;;;;;;;;19.30;57.50;;;;;;5077012;28;19999;-68
2021/05/14 12:56:59;;;;;;;;;;;19.40;58.40;;;;;;5077408;28;20353;-69
2021/05/14 12:59:25;;;;;;;;;;;19.70;57.70;;;;;;5077111;28;20213;-68
2021/05/14 13:01:51;;;;;;;;;;;19.60;57.30;;;;;;5077098;28;19927;-69
2021/05/14 13:04:17;;;;;;;;;;;19.60;55.70;;;;;;5075869;28;19912;-68
2021/05/14 13:06:43;;;;;;;;;;;19.80;57.30;;;;;;5073466;28;19913;-68
2021/05/14 13:09:10;;;;;;;;;;;20.30;53.60;;;;;;5076763;28;19919;-68
2021/05/14 13:11:41;;;;;;;;;;;20.30;51.20;;;;;;5076909;28;19917;-67
2021/05/14 13:14:07;;;;;;;;;;;20.20;51.70;;;;;;5078765;28;19931;-68
2021/05/14 13:16:33;;;;;;;;;;;20.60;53.10;;;;;;5079848;28;19940;-69
2021/05/14 13:18:59;;;;;;;;;;;20.50;54.50;;;;;;5058804;28;19948;-70
2021/05/14 13:21:27;;;;;;;;;;;20.80;53.50;;;;;;5059901;28;19922;-69
2021/05/14 13:23:53;;;;;;;;;;;20.60;53.80;;;;;;5077674;28;20008;-70
2021/05/14 13:26:19;;;;;;;;;;;21.10;54.60;;;;;;5076141;28;20084;-69
2021/05/14 13:28:46;;;;;;;;;;;21.20;52.40;;;;;;5077403;28;19913;-69
2021/05/14 13:31:18;;;;;;;;;;;20.20;53.90;;;;;;5080950;28;19918;-70
2021/05/14 13:33:47;;;;;;;;;;;19.60;55.10;;;;;;5085731;28;19917;-69
2021/05/14 13:36:13;;;;;;;;;;;19.00;57.20;;;;;;5065642;28;19912;-69
2021/05/14 13:38:38;;;;;;;;;;;18.80;56.00;;;;;;5077160;28;19908;-69
2021/05/14 13:41:04;;;;;;;;;;;18.30;57.20;;;;;;5076216;28;20320;-69
2021/05/14 13:43:30;;;;;;;;;;;17.80;57.00;;;;;;5077445;28;19909;-68
2021/05/14 13:45:56;;;;;;;;;;;17.50;56.80;;;;;;5076911;28;19916;-68
2021/05/14 13:48:22;;;;;;;;;;;17.30;57.70;;;;;;5075871;28;20009;-69
2021/05/14 13:50:47;;;;;;;;;;;17.40;58.10;;;;;;5076903;28;19940;-70
2021/05/14 13:53:13;;;;;;;;;;;17.70;58.30;;;;;;5076851;28;20698;-68
2021/05/14 13:55:39;;;;;;;;;;;18.40;55.80;;;;;;5074695;28;20230;-70
2021/05/14 13:58:04;;;;;;;;;;;18.50;56.10;;;;;;5063810;28;20265;-69
2021/05/14 14:00:30;;;;;;;;;;;18.80;56.80;;;;;;5077031;28;20281;-70
2021/05/14 14:02:55;;;;;;;;;;;18.50;57.40;;;;;;5065483;28;19920;-70
2021/05/14 14:05:21;;;;;;;;;;;18.10;58.00;;;;;;5072375;28;19916;-70
2021/05/14 14:07:46;;;;;;;;;;;17.80;57.70;;;;;;5089443;28;19916;-69
2021/05/14 14:10:12;;;;;;;;;;;17.70;59.40;;;;;;5075844;28;19916;-69
2021/05/14 14:12:38;;;;;;;;;;;18.20;62.00;;;;;;5076486;28;19916;-70
2021/05/14 14:15:04;;;;;;;;;;;18.20;61.70;;;;;;5079012;28;19928;-69
2021/05/14 14:17:30;;;;;;;;;;;18.50;62.80;;;;;;5075017;28;20345;-70
2021/05/14 14:19:56;;;;;;;;;;;19.30;63.60;;;;;;5076224;28;20025;-69
2021/05/14 14:22:21;;;;;;;;;;;20.00;60.00;;;;;;5078355;28;19913;-69
2021/05/14 14:24:49;;;;;;;;;;;20.40;59.80;;;;;;5095137;28;19914;-70
2021/05/14 14:27:18;;;;;;;;;;;20.60;59.10;;;;;;5076888;28;19917;-70